sensor_id;sensor_type;location;lat;lon;timestamp;P1;durP1;ratioP1;P2;durP2;ratioP2
54849;SDS011;47660;51.334;12.396;2023-03-09T00:00:55;7.45;;;3.50;;
54849;SDS011;47660;51.334;12.396;2023-03-09T00:03:21;13.65;;;5.03;;
54849;SDS011;47660;51.334;12.396;2023-03-09T00:05:55;9.65;;;5.20;;
54849;SDS011;47660;51.334;12.396;2023-03-09T00:08:23;10.50;;;3.78;;
54849;SDS011;47660;51.334;12.396;2023-03-09T00:10:49;11.05;;;4.13;;
54849;SDS011;47660;51.334;12.396;2023-03-09T00:13:21;11.90;;;4.32;;
54849;SDS011;47660;51.334;12.396;2023-03-09T00:15:47;8.80;;;3.92;;
54849;SDS011;47660;51.334;12.396;2023-03-09T00:18:18;14.80;;;4.72;;
54849;SDS011;47660;51.334;12.396;2023-03-09T00:20:47;10.02;;;3.38;;
54849;SDS011;47660;51.334;12.396;2023-03-09T00:23:15;10.20;;;5.07;;
54849;SDS011;47660;51.334;12.396;2023-03-09T00:25:44;10.45;;;4.18;;
54849;SDS011;47660;51.334;12.396;2023-03-09T00:28:13;14.15;;;4.50;;
54849;SDS011;47660;51.334;12.396;2023-03-09T00:30:38;11.07;;;4.70;;
54849;SDS011;47660;51.334;12.396;2023-03-09T00:33:06;12.55;;;4.43;;
54849;SDS011;47660;51.334;12.396;2023-03-09T00:35:34;8.68;;;4.18;;
54849;SDS011;47660;51.334;12.396;2023-03-09T00:38:00;12.32;;;4.85;;
54849;SDS011;47660;51.334;12.396;2023-03-09T00:40:26;9.30;;;4.38;;
54849;SDS011;47660;51.334;12.396;2023-03-09T00:42:51;12.77;;;5.03;;
54849;SDS011;47660;51.334;12.396;2023-03-09T00:45:16;9.15;;;3.70;;
54849;SDS011;47660;51.334;12.396;2023-03-09T00:47:46;7.38;;;3.75;;
54849;SDS011;47660;51.334;12.396;2023-03-09T00:50:14;13.13;;;4.78;;
54849;SDS011;47660;51.334;12.396;2023-03-09T00:52:40;11.63;;;5.07;;
54849;SDS011;47660;51.334;12.396;2023-03-09T00:55:05;11.05;;;4.47;;
54849;SDS011;47660;51.334;12.396;2023-03-09T00:57:32;11.32;;;4.95;;
54849;SDS011;47660;51.334;12.396;2023-03-09T00:59:57;11.65;;;3.95;;
54849;SDS011;47660;51.334;12.396;2023-03-09T01:02:23;11.70;;;4.90;;
54849;SDS011;47660;51.334;12.396;2023-03-09T01:04:52;11.18;;;4.45;;
54849;SDS011;47660;51.334;12.396;2023-03-09T01:07:19;14.13;;;5.35;;
54849;SDS011;47660;51.334;12.396;2023-03-09T01:09:45;7.03;;;3.50;;
54849;SDS011;47660;51.334;12.396;2023-03-09T01:12:14;12.57;;;4.80;;
54849;SDS011;47660;51.334;12.396;2023-03-09T01:14:41;13.57;;;4.18;;
54849;SDS011;47660;51.334;12.396;2023-03-09T01:17:07;13.07;;;4.53;;
54849;SDS011;47660;51.334;12.396;2023-03-09T01:19:33;9.65;;;4.13;;
54849;SDS011;47660;51.334;12.396;2023-03-09T01:21:58;9.73;;;3.28;;
54849;SDS011;47660;51.334;12.396;2023-03-09T01:24:26;7.25;;;3.95;;
54849;SDS011;47660;51.334;12.396;2023-03-09T01:26:51;9.55;;;3.92;;
54849;SDS011;47660;51.334;12.396;2023-03-09T01:29:18;13.88;;;4.60;;
54849;SDS011;47660;51.334;12.396;2023-03-09T01:31:43;7.43;;;3.65;;
54849;SDS011;47660;51.334;12.396;2023-03-09T01:34:10;13.63;;;4.70;;
54849;SDS011;47660;51.334;12.396;2023-03-09T01:36:38;16.70;;;5.50;;
54849;SDS011;47660;51.334;12.396;2023-03-09T01:39:04;17.85;;;5.30;;
54849;SDS011;47660;51.334;12.396;2023-03-09T01:41:33;16.45;;;4.90;;
54849;SDS011;47660;51.334;12.396;2023-03-09T01:43:58;9.32;;;3.72;;
54849;SDS011;47660;51.334;12.396;2023-03-09T01:46:32;14.60;;;3.92;;
54849;SDS011;47660;51.334;12.396;2023-03-09T01:49:06;13.48;;;4.50;;
54849;SDS011;47660;51.334;12.396;2023-03-09T01:54:52;10.45;;;4.00;;
54849;SDS011;47660;51.334;12.396;2023-03-09T01:57:32;7.80;;;3.50;;
54849;SDS011;47660;51.334;12.396;2023-03-09T02:00:34;9.18;;;3.72;;
54849;SDS011;47660;51.334;12.396;2023-03-09T02:02:59;7.25;;;3.63;;
54849;SDS011;47660;51.334;12.396;2023-03-09T02:05:36;5.45;;;2.20;;
54849;SDS011;47660;51.334;12.396;2023-03-09T02:08:20;11.60;;;3.92;;
54849;SDS011;47660;51.334;12.396;2023-03-09T02:10:49;7.10;;;3.17;;
54849;SDS011;47660;51.334;12.396;2023-03-09T02:13:20;9.68;;;4.28;;
54849;SDS011;47660;51.334;12.396;2023-03-09T02:15:49;8.75;;;3.58;;
54849;SDS011;47660;51.334;12.396;2023-03-09T02:18:15;6.07;;;2.42;;
54849;SDS011;47660;51.334;12.396;2023-03-09T02:20:48;6.85;;;2.85;;
54849;SDS011;47660;51.334;12.396;2023-03-09T02:23:23;9.55;;;3.00;;
54849;SDS011;47660;51.334;12.396;2023-03-09T02:28:55;5.78;;;2.70;;
54849;SDS011;47660;51.334;12.396;2023-03-09T02:31:23;8.25;;;3.15;;
54849;SDS011;47660;51.334;12.396;2023-03-09T02:33:51;7.28;;;2.85;;
54849;SDS011;47660;51.334;12.396;2023-03-09T02:36:19;8.15;;;2.10;;
54849;SDS011;47660;51.334;12.396;2023-03-09T02:38:46;2.90;;;1.95;;
54849;SDS011;47660;51.334;12.396;2023-03-09T02:41:12;7.18;;;2.80;;
54849;SDS011;47660;51.334;12.396;2023-03-09T02:43:46;4.97;;;2.20;;
54849;SDS011;47660;51.334;12.396;2023-03-09T02:46:14;5.72;;;2.92;;
54849;SDS011;47660;51.334;12.396;2023-03-09T02:48:40;5.80;;;2.42;;
54849;SDS011;47660;51.334;12.396;2023-03-09T02:51:05;3.67;;;1.77;;
54849;SDS011;47660;51.334;12.396;2023-03-09T02:53:31;4.65;;;2.45;;
54849;SDS011;47660;51.334;12.396;2023-03-09T02:55:57;4.78;;;1.98;;
54849;SDS011;47660;51.334;12.396;2023-03-09T02:58:23;4.15;;;2.00;;
54849;SDS011;47660;51.334;12.396;2023-03-09T03:00:56;4.20;;;2.50;;
54849;SDS011;47660;51.334;12.396;2023-03-09T03:03:26;3.70;;;1.88;;
54849;SDS011;47660;51.334;12.396;2023-03-09T03:05:51;4.47;;;2.08;;
54849;SDS011;47660;51.334;12.396;2023-03-09T03:08:17;4.63;;;1.70;;
54849;SDS011;47660;51.334;12.396;2023-03-09T03:10:42;5.57;;;2.25;;
54849;SDS011;47660;51.334;12.396;2023-03-09T03:13:08;3.47;;;1.83;;
54849;SDS011;47660;51.334;12.396;2023-03-09T03:15:36;3.60;;;2.30;;
54849;SDS011;47660;51.334;12.396;2023-03-09T03:18:04;5.05;;;2.08;;
54849;SDS011;47660;51.334;12.396;2023-03-09T03:20:29;3.88;;;2.20;;
54849;SDS011;47660;51.334;12.396;2023-03-09T03:22:57;4.47;;;2.42;;
54849;SDS011;47660;51.334;12.396;2023-03-09T03:25:22;2.83;;;1.75;;
54849;SDS011;47660;51.334;12.396;2023-03-09T03:27:52;4.93;;;2.15;;
54849;SDS011;47660;51.334;12.396;2023-03-09T03:30:18;5.75;;;2.30;;
54849;SDS011;47660;51.334;12.396;2023-03-09T03:32:44;3.88;;;2.30;;
54849;SDS011;47660;51.334;12.396;2023-03-09T03:35:09;3.42;;;1.80;;
54849;SDS011;47660;51.334;12.396;2023-03-09T03:37:37;4.60;;;2.15;;
54849;SDS011;47660;51.334;12.396;2023-03-09T03:40:03;4.68;;;2.10;;
54849;SDS011;47660;51.334;12.396;2023-03-09T03:42:33;3.00;;;2.08;;
54849;SDS011;47660;51.334;12.396;2023-03-09T03:45:00;5.35;;;2.03;;
54849;SDS011;47660;51.334;12.396;2023-03-09T03:47:26;3.85;;;1.67;;
54849;SDS011;47660;51.334;12.396;2023-03-09T03:49:51;6.05;;;1.40;;
54849;SDS011;47660;51.334;12.396;2023-03-09T03:52:17;4.55;;;1.83;;
54849;SDS011;47660;51.334;12.396;2023-03-09T03:54:42;2.90;;;1.38;;
54849;SDS011;47660;51.334;12.396;2023-03-09T03:57:10;3.60;;;2.13;;
54849;SDS011;47660;51.334;12.396;2023-03-09T03:59:35;3.83;;;1.88;;
54849;SDS011;47660;51.334;12.396;2023-03-09T04:02:01;2.28;;;1.30;;
54849;SDS011;47660;51.334;12.396;2023-03-09T04:04:26;4.03;;;2.00;;
54849;SDS011;47660;51.334;12.396;2023-03-09T04:06:52;4.55;;;2.10;;
54849;SDS011;47660;51.334;12.396;2023-03-09T04:09:17;4.65;;;2.20;;
54849;SDS011;47660;51.334;12.396;2023-03-09T04:11:44;5.70;;;1.90;;
54849;SDS011;47660;51.334;12.396;2023-03-09T04:14:10;2.22;;;1.40;;
54849;SDS011;47660;51.334;12.396;2023-03-09T04:16:36;3.80;;;2.42;;
54849;SDS011;47660;51.334;12.396;2023-03-09T04:19:03;4.00;;;1.70;;
54849;SDS011;47660;51.334;12.396;2023-03-09T04:21:29;3.83;;;2.10;;
54849;SDS011;47660;51.334;12.396;2023-03-09T04:23:55;6.88;;;2.40;;
54849;SDS011;47660;51.334;12.396;2023-03-09T04:26:20;3.45;;;1.80;;
54849;SDS011;47660;51.334;12.396;2023-03-09T04:28:46;3.85;;;2.13;;
54849;SDS011;47660;51.334;12.396;2023-03-09T04:31:11;6.50;;;2.40;;
54849;SDS011;47660;51.334;12.396;2023-03-09T04:33:40;3.40;;;2.40;;
54849;SDS011;47660;51.334;12.396;2023-03-09T04:36:12;4.32;;;1.83;;
54849;SDS011;47660;51.334;12.396;2023-03-09T04:38:37;4.03;;;2.03;;
54849;SDS011;47660;51.334;12.396;2023-03-09T04:41:03;1.77;;;1.52;;
54849;SDS011;47660;51.334;12.396;2023-03-09T04:43:29;2.95;;;1.95;;
54849;SDS011;47660;51.334;12.396;2023-03-09T04:45:54;3.92;;;1.73;;
54849;SDS011;47660;51.334;12.396;2023-03-09T04:48:22;3.05;;;1.90;;
54849;SDS011;47660;51.334;12.396;2023-03-09T04:50:48;5.03;;;2.03;;
54849;SDS011;47660;51.334;12.396;2023-03-09T04:53:13;3.30;;;1.98;;
54849;SDS011;47660;51.334;12.396;2023-03-09T04:55:41;3.88;;;1.98;;
54849;SDS011;47660;51.334;12.396;2023-03-09T04:58:06;5.55;;;2.50;;
54849;SDS011;47660;51.334;12.396;2023-03-09T05:00:32;4.38;;;2.30;;
54849;SDS011;47660;51.334;12.396;2023-03-09T05:02:57;7.75;;;2.25;;
54849;SDS011;47660;51.334;12.396;2023-03-09T05:05:25;4.90;;;2.10;;
54849;SDS011;47660;51.334;12.396;2023-03-09T05:07:54;4.47;;;2.67;;
54849;SDS011;47660;51.334;12.396;2023-03-09T05:10:19;5.00;;;2.20;;
54849;SDS011;47660;51.334;12.396;2023-03-09T05:12:47;3.95;;;2.00;;
54849;SDS011;47660;51.334;12.396;2023-03-09T05:15:15;5.82;;;2.15;;
54849;SDS011;47660;51.334;12.396;2023-03-09T05:17:40;4.20;;;2.78;;
54849;SDS011;47660;51.334;12.396;2023-03-09T05:20:06;5.97;;;2.55;;
54849;SDS011;47660;51.334;12.396;2023-03-09T05:22:35;4.88;;;2.33;;
54849;SDS011;47660;51.334;12.396;2023-03-09T05:25:03;3.05;;;2.47;;
54849;SDS011;47660;51.334;12.396;2023-03-09T05:27:31;5.60;;;2.03;;
54849;SDS011;47660;51.334;12.396;2023-03-09T05:29:57;6.13;;;2.75;;
54849;SDS011;47660;51.334;12.396;2023-03-09T05:32:23;5.07;;;2.60;;
54849;SDS011;47660;51.334;12.396;2023-03-09T05:34:48;5.30;;;2.50;;
54849;SDS011;47660;51.334;12.396;2023-03-09T05:37:14;5.03;;;2.60;;
54849;SDS011;47660;51.334;12.396;2023-03-09T05:39:39;7.05;;;2.70;;
54849;SDS011;47660;51.334;12.396;2023-03-09T05:42:04;5.05;;;2.40;;
54849;SDS011;47660;51.334;12.396;2023-03-09T05:44:33;7.78;;;2.65;;
54849;SDS011;47660;51.334;12.396;2023-03-09T05:46:58;4.50;;;2.10;;
54849;SDS011;47660;51.334;12.396;2023-03-09T05:49:26;5.68;;;2.60;;
54849;SDS011;47660;51.334;12.396;2023-03-09T05:51:55;5.05;;;2.25;;
54849;SDS011;47660;51.334;12.396;2023-03-09T05:54:23;4.50;;;1.85;;
54849;SDS011;47660;51.334;12.396;2023-03-09T05:56:52;4.18;;;1.75;;
54849;SDS011;47660;51.334;12.396;2023-03-09T05:59:18;5.25;;;2.25;;
54849;SDS011;47660;51.334;12.396;2023-03-09T06:01:45;3.85;;;2.22;;
54849;SDS011;47660;51.334;12.396;2023-03-09T06:04:14;4.40;;;1.50;;
54849;SDS011;47660;51.334;12.396;2023-03-09T06:06:39;7.43;;;2.90;;
54849;SDS011;47660;51.334;12.396;2023-03-09T06:09:07;4.97;;;3.13;;
54849;SDS011;47660;51.334;12.396;2023-03-09T06:11:35;7.25;;;3.03;;
54849;SDS011;47660;51.334;12.396;2023-03-09T06:14:00;7.50;;;2.83;;
54849;SDS011;47660;51.334;12.396;2023-03-09T06:16:26;8.65;;;3.10;;
54849;SDS011;47660;51.334;12.396;2023-03-09T06:18:54;4.22;;;3.08;;
54849;SDS011;47660;51.334;12.396;2023-03-09T06:21:23;5.88;;;2.33;;
54849;SDS011;47660;51.334;12.396;2023-03-09T06:23:54;5.70;;;2.60;;
54849;SDS011;47660;51.334;12.396;2023-03-09T06:26:20;5.97;;;2.88;;
54849;SDS011;47660;51.334;12.396;2023-03-09T06:28:47;5.30;;;2.15;;
54849;SDS011;47660;51.334;12.396;2023-03-09T06:31:13;7.07;;;2.97;;
54849;SDS011;47660;51.334;12.396;2023-03-09T06:33:43;4.05;;;2.72;;
54849;SDS011;47660;51.334;12.396;2023-03-09T06:36:14;4.70;;;2.95;;
54849;SDS011;47660;51.334;12.396;2023-03-09T06:38:43;5.70;;;3.00;;
54849;SDS011;47660;51.334;12.396;2023-03-09T06:41:09;6.03;;;2.60;;
54849;SDS011;47660;51.334;12.396;2023-03-09T06:43:35;4.93;;;2.70;;
54849;SDS011;47660;51.334;12.396;2023-03-09T06:46:03;2.40;;;1.92;;
54849;SDS011;47660;51.334;12.396;2023-03-09T06:48:28;5.93;;;2.22;;
54849;SDS011;47660;51.334;12.396;2023-03-09T06:50:54;4.72;;;2.63;;
54849;SDS011;47660;51.334;12.396;2023-03-09T06:53:19;5.82;;;2.42;;
54849;SDS011;47660;51.334;12.396;2023-03-09T06:55:44;5.43;;;2.60;;
54849;SDS011;47660;51.334;12.396;2023-03-09T06:58:10;6.28;;;3.10;;
54849;SDS011;47660;51.334;12.396;2023-03-09T07:00:38;6.18;;;2.90;;
54849;SDS011;47660;51.334;12.396;2023-03-09T07:03:06;7.35;;;3.47;;
54849;SDS011;47660;51.334;12.396;2023-03-09T07:05:34;7.32;;;2.97;;
54849;SDS011;47660;51.334;12.396;2023-03-09T07:11:30;7.88;;;3.13;;
54849;SDS011;47660;51.334;12.396;2023-03-09T07:13:55;6.13;;;2.58;;
54849;SDS011;47660;51.334;12.396;2023-03-09T07:16:21;6.32;;;3.20;;
54849;SDS011;47660;51.334;12.396;2023-03-09T07:18:51;5.07;;;2.67;;
54849;SDS011;47660;51.334;12.396;2023-03-09T07:21:21;5.03;;;2.13;;
54849;SDS011;47660;51.334;12.396;2023-03-09T07:23:47;6.38;;;2.67;;
54849;SDS011;47660;51.334;12.396;2023-03-09T07:26:14;4.20;;;1.90;;
54849;SDS011;47660;51.334;12.396;2023-03-09T07:28:42;3.95;;;2.10;;
54849;SDS011;47660;51.334;12.396;2023-03-09T07:31:09;3.92;;;2.20;;
54849;SDS011;47660;51.334;12.396;2023-03-09T07:33:38;3.20;;;2.05;;
54849;SDS011;47660;51.334;12.396;2023-03-09T07:36:07;5.53;;;2.92;;
54849;SDS011;47660;51.334;12.396;2023-03-09T07:38:33;5.43;;;2.75;;
54849;SDS011;47660;51.334;12.396;2023-03-09T07:41:04;5.88;;;2.38;;
54849;SDS011;47660;51.334;12.396;2023-03-09T07:43:33;3.70;;;2.28;;
54849;SDS011;47660;51.334;12.396;2023-03-09T07:46:01;4.38;;;2.13;;
54849;SDS011;47660;51.334;12.396;2023-03-09T07:48:30;5.10;;;2.75;;
54849;SDS011;47660;51.334;12.396;2023-03-09T07:50:56;4.50;;;2.22;;
54849;SDS011;47660;51.334;12.396;2023-03-09T07:53:23;4.93;;;2.35;;
54849;SDS011;47660;51.334;12.396;2023-03-09T07:55:57;4.47;;;2.25;;
54849;SDS011;47660;51.334;12.396;2023-03-09T07:58:24;5.72;;;2.33;;
54849;SDS011;47660;51.334;12.396;2023-03-09T08:00:50;6.63;;;2.50;;
54849;SDS011;47660;51.334;12.396;2023-03-09T08:03:20;5.68;;;2.13;;
54849;SDS011;47660;51.334;12.396;2023-03-09T08:05:47;5.07;;;2.90;;
54849;SDS011;47660;51.334;12.396;2023-03-09T08:08:16;8.27;;;2.75;;
54849;SDS011;47660;51.334;12.396;2023-03-09T08:10:50;3.33;;;2.17;;
54849;SDS011;47660;51.334;12.396;2023-03-09T08:13:17;4.30;;;1.65;;
54849;SDS011;47660;51.334;12.396;2023-03-09T08:15:43;7.05;;;2.72;;
54849;SDS011;47660;51.334;12.396;2023-03-09T08:18:09;4.03;;;2.28;;
54849;SDS011;47660;51.334;12.396;2023-03-09T08:20:35;3.28;;;2.35;;
54849;SDS011;47660;51.334;12.396;2023-03-09T08:23:01;4.53;;;2.30;;
54849;SDS011;47660;51.334;12.396;2023-03-09T08:25:29;4.55;;;2.28;;
54849;SDS011;47660;51.334;12.396;2023-03-09T08:27:55;5.18;;;3.00;;
54849;SDS011;47660;51.334;12.396;2023-03-09T08:30:21;5.05;;;2.67;;
54849;SDS011;47660;51.334;12.396;2023-03-09T08:32:47;5.90;;;2.28;;
54849;SDS011;47660;51.334;12.396;2023-03-09T08:35:14;4.82;;;2.10;;
54849;SDS011;47660;51.334;12.396;2023-03-09T08:37:41;4.40;;;2.60;;
54849;SDS011;47660;51.334;12.396;2023-03-09T08:40:09;2.88;;;2.55;;
54849;SDS011;47660;51.334;12.396;2023-03-09T08:42:36;4.22;;;1.42;;
54849;SDS011;47660;51.334;12.396;2023-03-09T08:45:02;2.72;;;1.58;;
54849;SDS011;47660;51.334;12.396;2023-03-09T08:47:29;6.45;;;2.75;;
54849;SDS011;47660;51.334;12.396;2023-03-09T08:49:55;4.78;;;2.42;;
54849;SDS011;47660;51.334;12.396;2023-03-09T08:52:20;6.18;;;2.22;;
54849;SDS011;47660;51.334;12.396;2023-03-09T08:54:46;6.82;;;2.20;;
54849;SDS011;47660;51.334;12.396;2023-03-09T08:57:12;5.60;;;3.00;;
54849;SDS011;47660;51.334;12.396;2023-03-09T08:59:40;2.75;;;1.67;;
54849;SDS011;47660;51.334;12.396;2023-03-09T09:02:05;4.50;;;2.60;;
54849;SDS011;47660;51.334;12.396;2023-03-09T09:04:31;6.22;;;2.92;;
54849;SDS011;47660;51.334;12.396;2023-03-09T09:06:56;6.32;;;2.72;;
54849;SDS011;47660;51.334;12.396;2023-03-09T09:09:21;7.97;;;3.08;;
54849;SDS011;47660;51.334;12.396;2023-03-09T09:11:47;5.10;;;3.00;;
54849;SDS011;47660;51.334;12.396;2023-03-09T09:14:15;5.90;;;2.95;;
54849;SDS011;47660;51.334;12.396;2023-03-09T09:16:43;5.55;;;2.13;;
54849;SDS011;47660;51.334;12.396;2023-03-09T09:19:11;5.97;;;2.38;;
54849;SDS011;47660;51.334;12.396;2023-03-09T09:21:39;5.93;;;3.35;;
54849;SDS011;47660;51.334;12.396;2023-03-09T09:24:05;3.92;;;1.98;;
54849;SDS011;47660;51.334;12.396;2023-03-09T09:26:30;4.82;;;2.53;;
54849;SDS011;47660;51.334;12.396;2023-03-09T09:28:56;8.13;;;3.78;;
54849;SDS011;47660;51.334;12.396;2023-03-09T09:31:22;9.02;;;4.22;;
54849;SDS011;47660;51.334;12.396;2023-03-09T09:33:50;12.30;;;3.67;;
54849;SDS011;47660;51.334;12.396;2023-03-09T09:36:16;9.65;;;3.72;;
54849;SDS011;47660;51.334;12.396;2023-03-09T09:38:43;7.80;;;2.83;;
54849;SDS011;47660;51.334;12.396;2023-03-09T09:41:14;7.07;;;3.55;;
54849;SDS011;47660;51.334;12.396;2023-03-09T09:43:46;9.90;;;3.92;;
54849;SDS011;47660;51.334;12.396;2023-03-09T09:46:16;8.90;;;3.97;;
54849;SDS011;47660;51.334;12.396;2023-03-09T09:48:45;9.02;;;4.00;;
54849;SDS011;47660;51.334;12.396;2023-03-09T09:51:23;12.55;;;4.45;;
54849;SDS011;47660;51.334;12.396;2023-03-09T09:57:00;11.45;;;4.50;;
54849;SDS011;47660;51.334;12.396;2023-03-09T10:07:50;7.38;;;3.78;;
54849;SDS011;47660;51.334;12.396;2023-03-09T10:10:20;11.27;;;4.00;;
54849;SDS011;47660;51.334;12.396;2023-03-09T10:12:49;10.05;;;3.72;;
54849;SDS011;47660;51.334;12.396;2023-03-09T10:15:18;9.70;;;4.05;;
54849;SDS011;47660;51.334;12.396;2023-03-09T10:17:54;6.22;;;3.35;;
54849;SDS011;47660;51.334;12.396;2023-03-09T10:20:39;7.53;;;3.38;;
54849;SDS011;47660;51.334;12.396;2023-03-09T10:23:18;7.25;;;3.72;;
54849;SDS011;47660;51.334;12.396;2023-03-09T10:26:02;9.05;;;4.10;;
54849;SDS011;47660;51.334;12.396;2023-03-09T10:28:42;7.25;;;2.75;;
54849;SDS011;47660;51.334;12.396;2023-03-09T10:34:13;7.85;;;3.70;;
54849;SDS011;47660;51.334;12.396;2023-03-09T10:36:59;6.60;;;3.33;;
54849;SDS011;47660;51.334;12.396;2023-03-09T10:39:27;4.07;;;2.58;;
54849;SDS011;47660;51.334;12.396;2023-03-09T10:41:58;9.15;;;2.97;;
54849;SDS011;47660;51.334;12.396;2023-03-09T10:44:36;17.85;;;4.50;;
54849;SDS011;47660;51.334;12.396;2023-03-09T10:47:02;10.77;;;4.93;;
54849;SDS011;47660;51.334;12.396;2023-03-09T10:49:28;12.23;;;5.00;;
54849;SDS011;47660;51.334;12.396;2023-03-09T10:51:58;9.32;;;3.75;;
54849;SDS011;47660;51.334;12.396;2023-03-09T10:54:28;10.27;;;4.38;;
54849;SDS011;47660;51.334;12.396;2023-03-09T10:57:20;5.35;;;2.58;;
54849;SDS011;47660;51.334;12.396;2023-03-09T11:00:03;10.35;;;3.85;;
54849;SDS011;47660;51.334;12.396;2023-03-09T11:02:36;6.22;;;3.20;;
54849;SDS011;47660;51.334;12.396;2023-03-09T11:07:52;6.60;;;3.00;;
54849;SDS011;47660;51.334;12.396;2023-03-09T11:10:32;10.40;;;4.03;;
54849;SDS011;47660;51.334;12.396;2023-03-09T11:13:01;19.15;;;4.20;;
54849;SDS011;47660;51.334;12.396;2023-03-09T11:15:30;9.20;;;3.53;;
54849;SDS011;47660;51.334;12.396;2023-03-09T11:18:02;7.25;;;3.22;;
54849;SDS011;47660;51.334;12.396;2023-03-09T11:20:52;9.77;;;3.53;;
54849;SDS011;47660;51.334;12.396;2023-03-09T11:23:27;6.43;;;3.13;;
54849;SDS011;47660;51.334;12.396;2023-03-09T11:31:17;8.73;;;3.78;;
54849;SDS011;47660;51.334;12.396;2023-03-09T11:39:50;12.40;;;4.07;;
54849;SDS011;47660;51.334;12.396;2023-03-09T11:42:24;9.20;;;2.83;;
54849;SDS011;47660;51.334;12.396;2023-03-09T11:44:59;8.63;;;3.70;;
54849;SDS011;47660;51.334;12.396;2023-03-09T11:50:02;7.78;;;3.55;;
54849;SDS011;47660;51.334;12.396;2023-03-09T11:52:39;6.00;;;3.20;;
54849;SDS011;47660;51.334;12.396;2023-03-09T11:55:14;7.95;;;2.95;;
54849;SDS011;47660;51.334;12.396;2023-03-09T11:57:43;9.82;;;4.15;;
54849;SDS011;47660;51.334;12.396;2023-03-09T12:00:13;7.07;;;2.80;;
54849;SDS011;47660;51.334;12.396;2023-03-09T12:05:21;7.47;;;3.35;;
54849;SDS011;47660;51.334;12.396;2023-03-09T12:08:06;9.07;;;3.35;;
54849;SDS011;47660;51.334;12.396;2023-03-09T12:10:37;6.18;;;2.95;;
54849;SDS011;47660;51.334;12.396;2023-03-09T12:18:37;7.70;;;3.78;;
54849;SDS011;47660;51.334;12.396;2023-03-09T12:21:05;9.15;;;3.90;;
54849;SDS011;47660;51.334;12.396;2023-03-09T12:25:59;6.88;;;2.83;;
54849;SDS011;47660;51.334;12.396;2023-03-09T12:28:26;9.32;;;3.97;;
54849;SDS011;47660;51.334;12.396;2023-03-09T12:30:53;6.80;;;3.25;;
54849;SDS011;47660;51.334;12.396;2023-03-09T12:47:25;7.00;;;3.70;;
54849;SDS011;47660;51.334;12.396;2023-03-09T12:49:58;12.52;;;4.70;;
54849;SDS011;47660;51.334;12.396;2023-03-09T12:57:50;9.75;;;3.83;;
54849;SDS011;47660;51.334;12.396;2023-03-09T13:00:36;10.93;;;4.93;;
54849;SDS011;47660;51.334;12.396;2023-03-09T13:03:14;8.20;;;4.03;;
54849;SDS011;47660;51.334;12.396;2023-03-09T13:05:48;9.00;;;3.85;;
54849;SDS011;47660;51.334;12.396;2023-03-09T13:13:56;10.73;;;4.05;;
54849;SDS011;47660;51.334;12.396;2023-03-09T13:21:39;10.23;;;4.35;;
54849;SDS011;47660;51.334;12.396;2023-03-09T13:24:17;9.07;;;3.92;;
54849;SDS011;47660;51.334;12.396;2023-03-09T13:26:52;12.20;;;4.50;;
54849;SDS011;47660;51.334;12.396;2023-03-09T13:29:21;9.20;;;4.25;;
54849;SDS011;47660;51.334;12.396;2023-03-09T13:31:56;10.82;;;4.13;;
54849;SDS011;47660;51.334;12.396;2023-03-09T13:37:00;10.95;;;4.82;;
54849;SDS011;47660;51.334;12.396;2023-03-09T13:39:29;10.48;;;4.32;;
54849;SDS011;47660;51.334;12.396;2023-03-09T13:42:04;11.05;;;4.53;;
54849;SDS011;47660;51.334;12.396;2023-03-09T13:44:34;11.20;;;4.57;;
54849;SDS011;47660;51.334;12.396;2023-03-09T13:47:20;15.55;;;4.80;;
54849;SDS011;47660;51.334;12.396;2023-03-09T13:49:56;11.13;;;4.70;;
54849;SDS011;47660;51.334;12.396;2023-03-09T13:52:27;12.52;;;5.70;;
54849;SDS011;47660;51.334;12.396;2023-03-09T13:54:57;13.32;;;5.18;;
54849;SDS011;47660;51.334;12.396;2023-03-09T13:57:34;11.85;;;5.07;;
54849;SDS011;47660;51.334;12.396;2023-03-09T14:00:16;11.70;;;5.60;;
54849;SDS011;47660;51.334;12.396;2023-03-09T14:02:51;11.65;;;4.55;;
54849;SDS011;47660;51.334;12.396;2023-03-09T14:05:18;11.57;;;5.10;;
54849;SDS011;47660;51.334;12.396;2023-03-09T14:07:52;15.00;;;5.53;;
54849;SDS011;47660;51.334;12.396;2023-03-09T14:10:21;17.85;;;5.65;;
54849;SDS011;47660;51.334;12.396;2023-03-09T14:13:00;11.80;;;5.10;;
54849;SDS011;47660;51.334;12.396;2023-03-09T14:15:29;13.15;;;5.70;;
54849;SDS011;47660;51.334;12.396;2023-03-09T14:17:55;13.98;;;5.97;;
54849;SDS011;47660;51.334;12.396;2023-03-09T14:20:25;8.80;;;4.22;;
54849;SDS011;47660;51.334;12.396;2023-03-09T14:25:55;13.75;;;5.15;;
54849;SDS011;47660;51.334;12.396;2023-03-09T14:28:40;17.35;;;6.47;;
54849;SDS011;47660;51.334;12.396;2023-03-09T14:33:53;14.25;;;4.95;;
54849;SDS011;47660;51.334;12.396;2023-03-09T14:36:22;14.65;;;5.88;;
54849;SDS011;47660;51.334;12.396;2023-03-09T14:38:52;16.08;;;6.25;;
54849;SDS011;47660;51.334;12.396;2023-03-09T14:41:25;10.40;;;5.32;;
54849;SDS011;47660;51.334;12.396;2023-03-09T14:43:53;15.07;;;5.80;;
54849;SDS011;47660;51.334;12.396;2023-03-09T14:46:20;12.68;;;5.95;;
54849;SDS011;47660;51.334;12.396;2023-03-09T14:48:48;15.98;;;5.45;;
54849;SDS011;47660;51.334;12.396;2023-03-09T14:56:37;13.90;;;5.85;;
54849;SDS011;47660;51.334;12.396;2023-03-09T14:59:25;15.82;;;6.38;;
54849;SDS011;47660;51.334;12.396;2023-03-09T15:01:51;16.67;;;7.35;;
54849;SDS011;47660;51.334;12.396;2023-03-09T15:04:29;14.20;;;6.93;;
54849;SDS011;47660;51.334;12.396;2023-03-09T15:06:57;12.80;;;5.45;;
54849;SDS011;47660;51.334;12.396;2023-03-09T15:09:23;19.38;;;8.00;;
54849;SDS011;47660;51.334;12.396;2023-03-09T15:11:51;19.02;;;7.13;;
54849;SDS011;47660;51.334;12.396;2023-03-09T15:16:58;20.23;;;6.78;;
54849;SDS011;47660;51.334;12.396;2023-03-09T15:19:24;20.13;;;7.07;;
54849;SDS011;47660;51.334;12.396;2023-03-09T15:21:51;18.55;;;7.47;;
54849;SDS011;47660;51.334;12.396;2023-03-09T15:24:21;16.10;;;6.68;;
54849;SDS011;47660;51.334;12.396;2023-03-09T15:26:51;23.10;;;7.65;;
54849;SDS011;47660;51.334;12.396;2023-03-09T15:29:17;18.77;;;7.32;;
54849;SDS011;47660;51.334;12.396;2023-03-09T15:31:43;16.85;;;7.45;;
54849;SDS011;47660;51.334;12.396;2023-03-09T15:34:09;19.33;;;6.93;;
54849;SDS011;47660;51.334;12.396;2023-03-09T15:36:34;16.58;;;6.82;;
54849;SDS011;47660;51.334;12.396;2023-03-09T15:39:00;17.45;;;7.22;;
54849;SDS011;47660;51.334;12.396;2023-03-09T15:41:28;16.40;;;6.97;;
54849;SDS011;47660;51.334;12.396;2023-03-09T15:43:54;17.17;;;7.90;;
54849;SDS011;47660;51.334;12.396;2023-03-09T15:46:19;19.15;;;7.03;;
54849;SDS011;47660;51.334;12.396;2023-03-09T15:48:45;18.85;;;7.53;;
54849;SDS011;47660;51.334;12.396;2023-03-09T15:51:10;19.85;;;7.13;;
54849;SDS011;47660;51.334;12.396;2023-03-09T15:53:36;18.05;;;7.25;;
54849;SDS011;47660;51.334;12.396;2023-03-09T15:56:05;22.63;;;7.78;;
54849;SDS011;47660;51.334;12.396;2023-03-09T15:58:36;17.85;;;7.45;;
54849;SDS011;47660;51.334;12.396;2023-03-09T16:03:32;17.77;;;7.03;;
54849;SDS011;47660;51.334;12.396;2023-03-09T16:06:00;17.80;;;7.88;;
54849;SDS011;47660;51.334;12.396;2023-03-09T16:08:28;17.85;;;7.30;;
54849;SDS011;47660;51.334;12.396;2023-03-09T16:10:54;18.67;;;7.28;;
54849;SDS011;47660;51.334;12.396;2023-03-09T16:13:22;17.15;;;7.20;;
54849;SDS011;47660;51.334;12.396;2023-03-09T16:15:48;16.77;;;6.55;;
54849;SDS011;47660;51.334;12.396;2023-03-09T16:18:15;15.77;;;7.25;;
54849;SDS011;47660;51.334;12.396;2023-03-09T16:20:41;18.55;;;7.20;;